Aplington, Iowa
Current Conditions -  °F | °C
As of 10:35 AM on Saturday 22 Nov 2014 (Local Time) from KIFA Reporting Station
Light Snow Light Snow  
Wind Chill: 31°   Ceiling: 200
Heat Index: 38°   Visibility: 0.5mi
Dew Point: 37°   Wind: 12mph
Humidity: 97%   Direction: 220°SW
Pressure: 29.84"   Gusts: NA
Location:  42.58°N, 92.88°W
Report Text: KIFA 221635Z AUTO 22010KT 1/2SM -SN OVC002 04/03 A2984 RMK AO2 T00350030
Loading
Personal Weather Stations






























Interactive Weather Map New forecast layout! Learn more

10-Day Weather Forecast

Advertisements
Track Severe Weather on mobile